createdAt,value
2019-01-05T00:00:34.864Z,1.45
2019-01-05T00:01:40.006Z,1.42
2019-01-05T00:02:56.921Z,1.48
2019-01-05T00:04:14.053Z,1.53
2019-01-05T00:05:27.989Z,1.57
2019-01-05T00:06:49.086Z,1.53
2019-01-05T00:08:10.264Z,1.38
2019-01-05T00:09:31.869Z,1.28
2019-01-05T00:10:51.898Z,1.16
2019-01-05T00:12:02.917Z,1.16
2019-01-05T00:13:13.836Z,1.21
2019-01-05T00:14:21.898Z,1.20
2019-01-05T00:15:33.438Z,1.19
2019-01-05T00:16:54.629Z,1.28
2019-01-05T00:18:16.181Z,1.31
2019-01-05T00:19:21.987Z,1.46
2019-01-05T00:20:43.697Z,1.43
2019-01-05T00:22:05.180Z,1.45
2019-01-05T00:23:19.678Z,1.59
2019-01-05T00:24:27.410Z,1.63
2019-01-05T00:25:35.566Z,1.41
2019-01-05T00:26:59.163Z,1.24
2019-01-05T00:28:06.943Z,1.33
2019-01-05T00:29:21.240Z,1.50
2019-01-05T00:30:41.510Z,1.36
2019-01-05T00:32:37.219Z,1.43
2019-01-05T00:33:54.304Z,1.44
2019-01-05T00:35:09.667Z,1.65
2019-01-05T00:36:15.586Z,1.65
2019-01-05T00:37:21.015Z,1.68
2019-01-05T00:38:42.812Z,1.62
2019-01-05T00:39:50.930Z,1.67
2019-01-05T00:41:06.579Z,1.60
2019-01-05T00:42:27.310Z,1.47
2019-01-05T00:43:44.389Z,1.42
2019-01-05T00:44:52.367Z,1.43
2019-01-05T00:46:16.763Z,1.39
2019-01-05T00:47:22.078Z,1.37
2019-01-05T00:48:31.377Z,1.45
2019-01-05T00:49:50.067Z,1.31
2019-01-05T00:50:56.813Z,1.34
2019-01-05T00:52:19.133Z,1.27
2019-01-05T00:53:33.253Z,1.31
2019-01-05T00:54:39.072Z,1.36
2019-01-05T00:55:47.397Z,1.32
2019-01-05T00:56:53.212Z,1.34
2019-01-05T00:58:17.147Z,1.46
2019-01-05T00:59:23.260Z,1.44
2019-01-05T01:00:44.504Z,1.48
2019-01-05T01:02:04.723Z,1.55
2019-01-05T01:03:09.881Z,1.44
2019-01-05T01:04:20.919Z,1.32
2019-01-05T01:05:41.020Z,1.32
2019-01-05T01:06:54.687Z,1.26
2019-01-05T01:08:17.979Z,1.28
2019-01-05T01:09:32.002Z,1.31
2019-01-05T01:10:54.810Z,1.26
2019-01-05T01:12:08.746Z,1.25
2019-01-05T01:13:22.817Z,1.28
2019-01-05T01:14:36.780Z,1.25
2019-01-05T01:15:57.751Z,1.26
2019-01-05T01:17:08.593Z,1.12
2019-01-05T01:18:29.626Z,1.12
2019-01-05T01:19:46.327Z,1.25
2019-01-05T01:21:04.417Z,1.31
2019-01-05T01:22:25.652Z,1.31
2019-01-05T01:23:39.813Z,1.20
2019-01-05T01:25:01.044Z,1.18
2019-01-05T01:26:23.217Z,1.21
2019-01-05T01:27:37.165Z,1.36
2019-01-05T01:28:42.377Z,1.07
2019-01-05T01:29:53.779Z,1.19
2019-01-05T01:31:01.678Z,1.01
2019-01-05T01:32:06.824Z,1.09
2019-01-05T01:33:12.925Z,1.10
2019-01-05T01:34:18.241Z,1.11
2019-01-05T01:35:39.505Z,1.12
2019-01-05T01:36:44.640Z,1.17
2019-01-05T01:38:23.975Z,1.23
2019-01-05T01:39:29.375Z,1.15
2019-01-05T01:40:43.365Z,1.04
2019-01-05T01:41:57.481Z,1.07
2019-01-05T01:43:08.909Z,1.05
2019-01-05T01:44:30.318Z,1.00
2019-01-05T01:45:47.609Z,1.03
2019-01-05T01:46:56.735Z,1.02
2019-01-05T01:48:05.969Z,1.15
2019-01-05T01:49:11.039Z,1.28
2019-01-05T01:50:33.382Z,1.28
2019-01-05T01:51:41.411Z,1.23
2019-01-05T01:52:55.429Z,1.19
2019-01-05T01:54:09.700Z,1.15
2019-01-05T01:55:30.730Z,1.32
2019-01-05T01:56:41.593Z,1.34
2019-01-05T01:57:53.712Z,1.29
2019-01-05T01:59:03.779Z,1.30
2019-01-05T02:00:20.155Z,1.12
2019-01-05T02:01:27.941Z,1.03
2019-01-05T02:02:38.950Z,1.13
2019-01-05T02:03:46.928Z,1.22
2019-01-05T02:05:04.711Z,1.18
2019-01-05T02:06:14.537Z,1.15
2019-01-05T02:07:22.538Z,1.25
2019-01-05T02:08:36.403Z,1.25
2019-01-05T02:09:55.131Z,1.20
2019-01-05T02:11:18.636Z,1.17
2019-01-05T02:12:29.395Z,1.20
2019-01-05T02:13:36.328Z,1.21
2019-01-05T02:14:50.283Z,1.19
2019-01-05T02:15:58.403Z,1.04
2019-01-05T02:17:18.237Z,1.09
2019-01-05T02:18:41.022Z,1.06
2019-01-05T02:20:05.136Z,1.17
2019-01-05T02:21:24.724Z,1.12
2019-01-05T02:23:05.466Z,1.07
2019-01-05T02:24:43.960Z,1.00
2019-01-05T02:25:57.587Z,1.03
2019-01-05T02:27:11.304Z,1.12
2019-01-05T02:28:39.651Z,1.16
2019-01-05T02:30:05.084Z,1.25
2019-01-05T02:31:33.680Z,1.20
2019-01-05T02:33:06.547Z,1.10
2019-01-05T02:34:33.522Z,1.07
2019-01-05T02:36:20.033Z,1.04
2019-01-05T02:37:57.789Z,1.05
2019-01-05T02:39:23.273Z,0.96
2019-01-05T02:40:58.442Z,1.04
2019-01-05T02:42:25.812Z,1.04
2019-01-05T02:43:45.581Z,1.03
2019-01-05T02:45:02.376Z,1.06
2019-01-05T02:46:19.249Z,1.02
2019-01-05T02:47:51.273Z,1.09
2019-01-05T02:49:19.636Z,1.14
2019-01-05T02:51:00.350Z,1.15
2019-01-05T02:52:28.976Z,1.04
2019-01-05T02:53:52.131Z,1.15
2019-01-05T02:55:32.740Z,1.18
2019-01-05T02:56:49.482Z,1.20
2019-01-05T02:58:28.466Z,1.22
2019-01-05T02:59:54.147Z,1.19
2019-01-05T03:01:22.316Z,1.04
2019-01-05T03:02:54.261Z,1.09
2019-01-05T03:04:32.074Z,1.16
2019-01-05T03:06:15.980Z,1.18
2019-01-05T03:08:04.014Z,1.18
2019-01-05T03:09:40.032Z,1.09
2019-01-05T03:11:11.717Z,1.32
2019-01-05T03:12:34.503Z,1.29
2019-01-05T03:14:04.662Z,1.30
2019-01-05T03:15:30.443Z,1.26
2019-01-05T03:17:00.561Z,1.27
2019-01-05T03:18:32.482Z,1.25
2019-01-05T03:20:02.427Z,1.20
2019-01-05T03:21:19.040Z,1.36
2019-01-05T03:22:38.405Z,1.41
2019-01-05T03:24:00.848Z,1.38
2019-01-05T03:25:47.637Z,1.34
2019-01-05T03:27:29.967Z,1.19
2019-01-05T03:28:55.497Z,1.08
2019-01-05T03:30:12.101Z,1.00
2019-01-05T03:31:48.168Z,1.04
2019-01-05T03:33:27.593Z,1.18
2019-01-05T03:35:05.634Z,1.24
2019-01-05T03:36:31.526Z,1.21
2019-01-05T03:38:06.245Z,1.15
2019-01-05T03:39:57.400Z,1.21
2019-01-05T03:41:23.031Z,1.30
2019-01-05T03:43:03.478Z,1.36
2019-01-05T03:44:40.395Z,1.37
2019-01-05T03:45:56.292Z,1.32
2019-01-05T03:47:20.204Z,1.25
2019-01-05T03:48:54.971Z,1.17
2019-01-05T03:50:20.572Z,1.17
2019-01-05T03:51:45.970Z,1.20
2019-01-05T03:53:41.634Z,1.21
2019-01-05T03:54:52.566Z,1.25
2019-01-05T03:56:22.973Z,1.19
2019-01-05T03:57:49.046Z,1.12
2019-01-05T03:59:32.837Z,1.10
2019-01-05T04:00:59.650Z,1.20
2019-01-05T04:02:25.531Z,1.26
2019-01-05T04:03:55.572Z,1.13
2019-01-05T04:05:28.849Z,1.08
2019-01-05T04:06:57.605Z,1.16
2019-01-05T04:08:53.442Z,1.10
2019-01-05T04:10:26.299Z,1.19
2019-01-05T04:12:06.978Z,1.20
2019-01-05T04:13:15.126Z,1.12
2019-01-05T04:14:31.559Z,1.25
2019-01-05T04:16:09.528Z,1.22
2019-01-05T04:17:50.267Z,1.19
2019-01-05T04:19:14.115Z,1.14
2019-01-05T04:20:25.229Z,1.13
2019-01-05T04:22:13.302Z,1.23
2019-01-05T04:24:00.016Z,1.23
2019-01-05T04:25:59.904Z,1.25
2019-01-05T04:27:31.734Z,1.17
2019-01-05T04:29:12.416Z,1.14
2019-01-05T04:30:53.022Z,1.13
2019-01-05T04:32:18.955Z,1.25
2019-01-05T04:33:59.484Z,1.24
2019-01-05T04:35:39.570Z,1.29
2019-01-05T04:37:06.599Z,1.31
2019-01-05T04:38:47.223Z,1.23
2019-01-05T04:40:29.385Z,1.13
2019-01-05T04:42:11.591Z,1.12
2019-01-05T04:43:59.994Z,1.15
2019-01-05T04:45:52.415Z,1.09
2019-01-05T04:47:28.657Z,1.16
2019-01-05T04:48:48.168Z,1.17
2019-01-05T04:50:14.062Z,1.10
2019-01-05T04:51:50.293Z,1.12
2019-01-05T04:53:34.136Z,1.24
2019-01-05T04:54:59.748Z,1.22
2019-01-05T04:56:29.004Z,1.16
2019-01-05T04:57:45.105Z,1.17
2019-01-05T04:59:18.454Z,1.16
2019-01-05T05:01:07.327Z,1.22
2019-01-05T05:02:47.357Z,1.12
2019-01-05T05:04:26.659Z,1.26
2019-01-05T05:06:13.253Z,1.31
2019-01-05T05:07:38.985Z,1.21
2019-01-05T05:09:07.591Z,1.19
2019-01-05T05:10:41.574Z,1.18
2019-01-05T05:12:04.560Z,1.19
2019-01-05T05:13:52.569Z,1.22
2019-01-05T05:15:25.142Z,1.23
2019-01-05T05:17:05.791Z,1.09
2019-01-05T05:18:46.735Z,1.19
2019-01-05T05:20:25.268Z,1.13
2019-01-05T05:22:03.722Z,1.12
2019-01-05T05:23:42.848Z,1.05
2019-01-05T05:25:02.155Z,1.16
2019-01-05T05:26:24.812Z,1.12
2019-01-05T05:27:38.573Z,1.18
2019-01-05T05:29:11.648Z,1.25
2019-01-05T05:30:40.520Z,1.19
2019-01-05T05:32:06.387Z,1.14
2019-01-05T05:34:00.535Z,1.22
2019-01-05T05:35:20.326Z,1.17
2019-01-05T05:36:56.514Z,1.21
2019-01-05T05:38:12.926Z,1.18
2019-01-05T05:39:39.767Z,1.24
2019-01-05T05:41:25.286Z,1.20
2019-01-05T05:42:52.753Z,1.18
2019-01-05T05:44:26.054Z,1.19
2019-01-05T05:45:34.175Z,1.20
2019-01-05T05:47:16.227Z,1.26
2019-01-05T05:48:46.762Z,1.27
2019-01-05T05:50:12.080Z,1.22
2019-01-05T05:51:51.261Z,1.23
2019-01-05T05:53:07.634Z,1.18
2019-01-05T05:54:35.587Z,1.21
2019-01-05T05:56:07.581Z,1.28
2019-01-05T05:57:37.461Z,1.22
2019-01-05T05:59:04.153Z,1.29
2019-01-05T06:00:34.438Z,1.21
2019-01-05T06:02:03.193Z,1.15
2019-01-05T06:03:22.929Z,1.15
2019-01-05T06:04:45.603Z,1.18
2019-01-05T06:06:25.920Z,1.20
2019-01-05T06:07:39.638Z,1.21
2019-01-05T06:09:02.439Z,1.34
2019-01-05T06:10:41.683Z,1.31
2019-01-05T06:12:21.036Z,1.31
2019-01-05T06:13:54.321Z,1.27
2019-01-05T06:15:39.568Z,1.23
2019-01-05T06:17:20.246Z,1.39
2019-01-05T06:18:53.377Z,1.30
2019-01-05T06:20:04.154Z,1.34
2019-01-05T06:21:40.331Z,1.35
2019-01-05T06:23:10.519Z,1.21
2019-01-05T06:24:37.365Z,1.19
2019-01-05T06:26:07.619Z,1.12
2019-01-05T06:27:57.196Z,1.10
2019-01-05T06:29:24.125Z,1.11
2019-01-05T06:30:43.641Z,1.24
2019-01-05T06:32:40.457Z,1.42
2019-01-05T06:34:09.298Z,1.34
2019-01-05T06:44:18.938Z,1.35
2019-01-05T06:45:29.562Z,1.15
2019-01-05T06:47:07.564Z,1.17
2019-01-05T06:48:18.507Z,1.24
2019-01-05T06:49:38.313Z,1.20
2019-01-05T06:51:13.114Z,1.25
2019-01-05T06:52:37.502Z,1.31
2019-01-05T06:54:14.027Z,1.28
2019-01-05T06:55:57.946Z,1.22
2019-01-05T06:57:46.152Z,1.27
2019-01-05T06:59:11.794Z,1.29
2019-01-05T07:01:08.734Z,1.23
2019-01-05T07:02:57.081Z,1.21
2019-01-05T07:04:30.311Z,1.20
2019-01-05T07:06:08.957Z,1.20
2019-01-05T07:07:40.749Z,1.20
2019-01-05T07:09:13.863Z,1.25
2019-01-05T07:10:56.223Z,1.23
2019-01-05T07:12:36.893Z,1.23
2019-01-05T07:14:11.823Z,1.18
2019-01-05T07:15:40.922Z,1.17
2019-01-05T07:17:15.733Z,1.26
2019-01-05T07:19:00.779Z,1.24
2019-01-05T07:20:41.385Z,1.23
2019-01-05T07:22:00.898Z,1.30
2019-01-05T07:23:20.443Z,1.25
2019-01-05T07:24:59.726Z,1.11
2019-01-05T07:26:24.168Z,1.11
2019-01-05T07:28:09.616Z,1.12
2019-01-05T07:30:08.413Z,1.17
2019-01-05T07:31:32.403Z,1.16
2019-01-05T07:33:08.279Z,1.19
2019-01-05T07:35:00.765Z,1.18
2019-01-05T07:36:57.627Z,1.18
2019-01-05T07:38:17.163Z,1.25
2019-01-05T07:40:02.613Z,1.35
2019-01-05T07:41:53.924Z,1.26
2019-01-05T07:43:24.176Z,1.29
2019-01-05T07:45:07.359Z,1.20
2019-01-05T07:46:34.499Z,1.22
2019-01-05T07:48:27.048Z,1.22
2019-01-05T07:50:19.701Z,1.20
2019-01-05T07:52:15.160Z,1.21
2019-01-05T07:54:08.086Z,1.27
2019-01-05T07:55:33.748Z,1.33
2019-01-05T07:57:02.311Z,1.27
2019-01-05T07:58:49.238Z,1.24
2019-01-05T08:00:34.726Z,1.17
2019-01-05T08:02:15.359Z,1.18
2019-01-05T08:04:03.081Z,1.17
2019-01-05T08:05:42.350Z,1.13
2019-01-05T08:07:16.442Z,1.16
2019-01-05T08:08:57.118Z,1.24
2019-01-05T08:10:19.801Z,1.10
2019-01-05T08:11:51.564Z,1.17
2019-01-05T08:13:25.025Z,1.19
2019-01-05T08:14:44.575Z,1.21
2019-01-05T08:16:32.812Z,1.21
2019-01-05T08:17:57.162Z,1.19
2019-01-05T08:19:37.724Z,1.26
2019-01-05T08:21:15.620Z,1.34
2019-01-05T08:22:50.165Z,1.37
2019-01-05T08:24:01.128Z,1.28
2019-01-05T08:25:28.087Z,1.29
2019-01-05T08:26:47.569Z,1.33
2019-01-05T08:28:22.028Z,1.27
2019-01-05T08:29:53.958Z,1.29
2019-01-05T08:31:32.830Z,1.20
2019-01-05T08:32:46.354Z,1.27
2019-01-05T08:34:16.261Z,1.10
2019-01-05T08:35:43.101Z,1.09
2019-01-05T08:37:34.125Z,1.08
2019-01-05T08:39:12.183Z,1.04
2019-01-05T08:40:42.676Z,1.06
2019-01-05T08:42:25.178Z,1.11
2019-01-05T08:43:53.932Z,1.11
2019-01-05T08:45:29.003Z,1.19
2019-01-05T08:47:15.397Z,1.12
2019-01-05T08:48:44.471Z,1.09
2019-01-05T08:50:22.358Z,1.17
2019-01-05T08:51:57.221Z,1.19
2019-01-05T08:53:35.653Z,1.18
2019-01-05T08:55:17.870Z,1.18
2019-01-05T08:56:37.209Z,1.18
2019-01-05T08:58:18.054Z,1.09
2019-01-05T09:00:00.332Z,1.14
2019-01-05T09:01:20.343Z,1.22
2019-01-05T09:03:02.564Z,1.11
2019-01-05T09:04:38.797Z,1.22
2019-01-05T09:05:55.673Z,1.29
2019-01-05T09:07:34.973Z,1.22
2019-01-05T09:09:07.798Z,1.15
2019-01-05T09:10:50.492Z,1.24
2019-01-05T09:12:36.975Z,1.21
2019-01-05T09:14:08.562Z,1.29
2019-01-05T09:15:40.072Z,1.46
2019-01-05T09:17:08.818Z,1.43
2019-01-05T09:18:31.664Z,1.26
2019-01-05T09:20:04.281Z,1.26
2019-01-05T09:21:26.918Z,1.20
2019-01-05T09:23:19.511Z,1.21
2019-01-05T09:24:51.539Z,1.21
2019-01-05T09:26:21.665Z,1.18
2019-01-05T09:27:58.319Z,1.31
2019-01-05T09:29:28.256Z,1.23
2019-01-05T09:30:57.197Z,1.13
2019-01-05T09:32:23.890Z,1.12
2019-01-05T09:34:12.153Z,1.06
2019-01-05T09:35:59.046Z,1.03
2019-01-05T09:37:33.659Z,1.11
2019-01-05T09:39:09.838Z,1.14
2019-01-05T09:40:35.885Z,1.14
2019-01-05T09:42:05.936Z,1.10
2019-01-05T09:43:31.639Z,1.28
2019-01-05T09:45:07.955Z,1.21
2019-01-05T09:46:51.667Z,1.17
2019-01-05T09:48:21.934Z,1.24
2019-01-05T09:49:55.238Z,1.26
2019-01-05T09:51:35.482Z,1.26
2019-01-05T09:53:08.850Z,1.10
2019-01-05T09:55:08.079Z,1.09
2019-01-05T09:56:53.432Z,1.05
2019-01-05T09:58:17.713Z,1.06
2019-01-05T09:59:43.690Z,1.06
2019-01-05T10:01:13.409Z,0.99
2019-01-05T10:03:08.647Z,0.95
2019-01-05T10:04:37.607Z,0.98
2019-01-05T10:05:45.757Z,1.06
2019-01-05T10:06:59.454Z,1.18
2019-01-05T10:08:22.346Z,1.21
2019-01-05T10:10:04.592Z,1.14
2019-01-05T10:11:36.229Z,1.12
2019-01-05T10:13:22.953Z,1.08
2019-01-05T10:14:54.324Z,1.12
2019-01-05T10:16:21.221Z,1.15
2019-01-05T10:17:37.541Z,1.09
2019-01-05T10:19:07.690Z,1.12
2019-01-05T10:20:43.976Z,1.18
2019-01-05T10:22:10.086Z,1.22
2019-01-05T10:23:37.075Z,1.21
2019-01-05T10:25:02.611Z,1.12
2019-01-05T10:26:41.089Z,1.18
2019-01-05T10:28:19.041Z,1.21
2019-01-05T10:30:17.448Z,1.27
2019-01-05T10:31:59.782Z,1.27
2019-01-05T10:33:25.233Z,1.21
2019-01-05T10:34:54.230Z,1.21
2019-01-05T10:36:33.449Z,1.23
2019-01-05T10:38:08.873Z,1.29
2019-01-05T10:39:40.726Z,1.25
2019-01-05T10:41:12.859Z,1.29
2019-01-05T10:42:46.463Z,1.30
2019-01-05T10:44:19.366Z,1.36
2019-01-05T10:45:43.354Z,1.40
2019-01-05T10:46:57.317Z,1.44
2019-01-05T10:48:27.862Z,1.36
2019-01-05T10:50:19.652Z,1.31
2019-01-05T10:51:57.202Z,1.31
2019-01-05T10:53:10.954Z,1.23
2019-01-05T10:54:54.334Z,1.25
2019-01-05T10:56:24.424Z,1.22
2019-01-05T10:57:50.067Z,1.28
2019-01-05T10:59:35.089Z,1.24
2019-01-05T11:00:57.626Z,1.36
2019-01-05T11:02:47.343Z,1.29
2019-01-05T11:04:00.603Z,1.29
2019-01-05T11:05:23.560Z,1.35
2019-01-05T11:06:48.958Z,1.41
2019-01-05T11:08:26.780Z,1.35
2019-01-05T11:09:46.673Z,1.38
2019-01-05T11:11:30.426Z,1.37
2019-01-05T11:13:02.199Z,1.45
2019-01-05T11:14:59.419Z,1.35
2019-01-05T11:16:40.270Z,1.32
2019-01-05T11:18:24.120Z,1.36
2019-01-05T11:19:54.733Z,1.43
2019-01-05T11:21:41.563Z,1.52
2019-01-05T11:23:07.354Z,1.46
2019-01-05T11:24:55.799Z,1.58
2019-01-05T11:26:45.301Z,1.67
2019-01-05T11:28:31.243Z,1.60
2019-01-05T11:30:12.834Z,1.57
2019-01-05T11:31:40.143Z,1.49
2019-01-05T11:33:02.681Z,1.45
2019-01-05T11:34:22.498Z,1.49
2019-01-05T11:35:42.265Z,1.51
2019-01-05T11:37:16.969Z,1.62
2019-01-05T11:38:56.273Z,1.68
2019-01-05T11:40:44.875Z,1.61
2019-01-05T11:41:55.428Z,1.61
2019-01-05T11:43:28.896Z,1.58
2019-01-05T11:45:01.958Z,1.56
2019-01-05T11:46:33.600Z,1.56
2019-01-05T11:48:10.868Z,1.62
2019-01-05T11:49:57.474Z,1.58
2019-01-05T11:51:19.711Z,1.68
2019-01-05T11:52:48.407Z,1.75
2019-01-05T11:54:39.255Z,1.76
2019-01-05T11:55:58.869Z,1.69
2019-01-05T11:57:52.109Z,1.86
2019-01-05T11:59:26.827Z,1.92
2019-01-05T12:00:54.232Z,1.84
2019-01-05T12:02:34.958Z,1.72
2019-01-05T12:03:48.939Z,1.79
2019-01-05T12:05:18.759Z,1.76
2019-01-05T12:06:38.394Z,1.69
2019-01-05T12:08:10.041Z,1.66
2019-01-05T12:09:49.310Z,1.73
2019-01-05T12:11:17.474Z,1.79
2019-01-05T12:12:44.482Z,1.77
2019-01-05T12:14:19.070Z,1.81
2019-01-05T12:15:48.980Z,1.81
2019-01-05T12:17:16.483Z,1.73
2019-01-05T12:18:39.326Z,1.71
2019-01-05T12:20:08.363Z,1.81
2019-01-05T12:21:51.421Z,1.77
2019-01-05T12:23:15.855Z,1.74
2019-01-05T12:24:56.362Z,1.72
2019-01-05T12:26:37.375Z,1.65
2019-01-05T12:27:54.000Z,1.62
2019-01-05T12:29:50.987Z,1.69
2019-01-05T12:31:07.400Z,1.64
2019-01-05T12:32:47.847Z,1.78
2019-01-05T12:34:22.595Z,1.77
2019-01-05T12:35:55.910Z,1.80
2019-01-05T12:37:24.533Z,1.84
2019-01-05T12:39:00.718Z,1.82
2019-01-05T12:40:47.660Z,1.73
2019-01-05T12:41:58.351Z,1.73
2019-01-05T12:43:31.535Z,1.72
2019-01-05T12:44:42.230Z,1.70
2019-01-05T12:46:18.242Z,1.72
2019-01-05T12:47:45.372Z,1.79
2019-01-05T12:49:27.171Z,1.88
2019-01-05T12:51:06.547Z,1.81
2019-01-05T12:52:50.151Z,1.73
2019-01-05T12:54:15.938Z,1.84
2019-01-05T12:55:38.559Z,1.84
2019-01-05T12:57:08.745Z,1.76
2019-01-05T12:58:42.174Z,1.82
2019-01-05T13:00:27.504Z,1.82
2019-01-05T13:02:02.304Z,1.89
2019-01-05T13:03:33.905Z,1.84
2019-01-05T13:04:56.494Z,1.78
2019-01-05T13:06:31.308Z,1.75
2019-01-05T13:07:44.995Z,1.78
2019-01-05T13:09:28.755Z,1.87
2019-01-05T13:11:11.257Z,1.86
2019-01-05T13:12:41.319Z,1.85
2019-01-05T13:14:12.911Z,1.88
2019-01-05T13:15:47.608Z,1.91
2019-01-05T13:17:30.702Z,1.82
2019-01-05T13:18:56.487Z,1.86
2019-01-05T13:20:37.290Z,1.85
2019-01-05T13:22:12.143Z,1.99
2019-01-05T13:23:23.179Z,2.11
2019-01-05T13:24:43.001Z,2.01
2019-01-05T13:26:08.570Z,1.94
2019-01-05T13:27:25.061Z,1.88
2019-01-05T13:29:00.918Z,1.91
2019-01-05T13:30:35.640Z,1.95
2019-01-05T13:32:26.878Z,1.96
2019-01-05T13:33:43.703Z,1.99
2019-01-05T13:34:57.304Z,1.90
2019-01-05T13:36:11.269Z,1.91
2019-01-05T13:37:47.014Z,1.92
2019-01-05T13:39:38.317Z,1.98
2019-01-05T13:41:29.566Z,2.08
2019-01-05T13:43:02.511Z,2.09
2019-01-05T13:44:16.342Z,2.14
2019-01-05T13:45:47.701Z,2.13
2019-01-05T13:47:30.859Z,2.10
2019-01-05T13:49:10.574Z,2.07
2019-01-05T13:50:36.298Z,2.03
2019-01-05T13:52:02.190Z,2.10
2019-01-05T13:53:19.425Z,2.03
2019-01-05T13:54:40.346Z,2.00
2019-01-05T13:56:04.778Z,2.10
2019-01-05T13:57:24.889Z,1.97
2019-01-05T13:58:35.910Z,1.90
2019-01-05T13:59:43.503Z,1.88
2019-01-05T14:00:48.572Z,1.83
2019-01-05T14:01:53.636Z,1.74
2019-01-05T14:03:13.686Z,1.81
2019-01-05T14:04:18.756Z,1.83
2019-01-05T14:05:29.407Z,1.92
2019-01-05T14:06:36.965Z,1.93
2019-01-05T14:07:58.102Z,1.99
2019-01-05T14:09:08.866Z,2.07
2019-01-05T14:10:16.691Z,2.14
2019-01-05T14:11:24.519Z,2.08
2019-01-05T14:12:47.483Z,2.01
2019-01-05T14:14:08.875Z,2.08
2019-01-05T14:15:32.009Z,2.14
2019-01-05T14:16:45.777Z,2.19
2019-01-05T14:18:08.453Z,2.17
2019-01-05T14:19:31.550Z,2.18
2019-01-05T14:20:36.624Z,2.13
2019-01-05T14:21:57.508Z,2.18
2019-01-05T14:23:05.461Z,2.11
2019-01-05T14:24:10.530Z,2.14
2019-01-05T14:25:24.668Z,2.05
2019-01-05T14:26:35.298Z,2.01
2019-01-05T14:27:56.309Z,1.99
2019-01-05T14:29:06.786Z,1.97
2019-01-05T14:30:14.729Z,1.98
2019-01-05T14:31:35.496Z,2.05
2019-01-05T14:32:58.130Z,2.14
2019-01-05T14:34:08.619Z,2.22
2019-01-05T14:35:22.601Z,2.11
2019-01-05T14:36:42.266Z,2.07
2019-01-05T14:37:47.331Z,2.02
2019-01-05T14:38:52.457Z,1.99
2019-01-05T14:40:03.115Z,1.98
2019-01-05T14:41:11.223Z,1.98
2019-01-05T14:42:19.100Z,2.02
2019-01-05T14:43:27.143Z,1.97
2019-01-05T14:44:32.205Z,1.89
2019-01-05T14:45:55.358Z,1.85
2019-01-05T14:47:15.679Z,1.88
2019-01-05T14:48:20.746Z,1.97
2019-01-05T14:49:41.938Z,1.94
2019-01-05T14:50:55.557Z,1.99
2019-01-05T14:52:03.055Z,1.93
2019-01-05T14:53:08.111Z,1.96
2019-01-05T14:54:29.163Z,1.98
2019-01-05T14:55:42.666Z,1.96
2019-01-05T14:56:59.507Z,2.05
2019-01-05T14:58:20.712Z,2.08
2019-01-05T14:59:41.911Z,2.08
2019-01-05T15:00:58.438Z,2.06
2019-01-05T15:02:15.264Z,2.02
2019-01-05T15:03:36.258Z,2.02
2019-01-05T15:04:43.985Z,1.96
2019-01-05T15:06:05.267Z,2.05
2019-01-05T15:07:13.049Z,2.09
2019-01-05T15:08:36.017Z,2.20
2019-01-05T15:09:56.717Z,2.18
2019-01-05T15:11:10.803Z,2.09
2019-01-05T15:12:21.797Z,2.07
2019-01-05T15:13:32.737Z,1.99
2019-01-05T15:14:43.629Z,1.99
2019-01-05T15:15:57.833Z,2.06
2019-01-05T15:17:18.932Z,2.08
2019-01-05T15:18:36.162Z,2.17
2019-01-05T15:19:59.197Z,2.23
2019-01-05T15:21:10.348Z,2.15
2019-01-05T15:22:21.233Z,2.12
2019-01-05T15:23:26.312Z,2.12
2019-01-05T15:24:37.192Z,2.08
2019-01-05T15:25:48.203Z,2.12
2019-01-05T15:27:02.155Z,2.15
2019-01-05T15:28:21.971Z,2.07
2019-01-05T15:29:35.793Z,2.09
2019-01-05T15:30:56.637Z,2.03
2019-01-05T15:32:04.751Z,2.15
2019-01-05T15:33:15.453Z,2.07
2019-01-05T15:34:36.590Z,2.01
2019-01-05T15:35:44.212Z,2.05
2019-01-05T15:37:05.068Z,2.09
2019-01-05T15:38:18.955Z,2.03
2019-01-05T15:39:24.113Z,1.75
2019-01-05T15:40:45.313Z,1.94
2019-01-05T15:42:06.602Z,2.00
2019-01-05T15:43:27.842Z,2.01
2019-01-05T15:44:32.916Z,2.00
2019-01-05T15:45:43.700Z,2.02
2019-01-05T15:46:51.295Z,2.05
2019-01-05T15:48:10.939Z,2.14
2019-01-05T15:49:21.830Z,2.15
2019-01-05T15:50:44.837Z,2.22
2019-01-05T15:51:55.720Z,2.19
2019-01-05T15:53:00.805Z,2.13
2019-01-05T15:54:20.843Z,2.08
2019-01-05T15:55:31.669Z,2.09
2019-01-05T15:56:52.602Z,2.10
2019-01-05T15:58:00.238Z,2.20
2019-01-05T15:59:05.369Z,2.26
2019-01-05T16:00:27.080Z,2.21
2019-01-05T16:01:34.622Z,2.20
2019-01-05T16:02:57.999Z,2.14
2019-01-05T16:04:05.879Z,2.02
2019-01-05T16:05:27.118Z,2.18
2019-01-05T16:06:48.199Z,2.23
2019-01-05T16:08:08.026Z,2.28
2019-01-05T16:09:29.423Z,2.31
2019-01-05T16:10:50.547Z,2.28
2019-01-05T16:11:55.614Z,2.20
2019-01-05T16:13:18.701Z,2.09
2019-01-05T16:14:29.766Z,2.12
2019-01-05T16:15:37.750Z,2.23
2019-01-05T16:16:48.560Z,2.32
2019-01-05T16:18:05.624Z,2.34
2019-01-05T16:19:25.422Z,2.32
2019-01-05T16:20:30.457Z,2.34
2019-01-05T16:21:47.189Z,2.33
2019-01-05T16:22:52.275Z,2.34
2019-01-05T16:24:13.212Z,2.27
2019-01-05T16:25:21.099Z,2.28
2019-01-05T16:26:42.240Z,2.26
2019-01-05T16:28:05.086Z,2.28
2019-01-05T16:29:13.050Z,2.24
2019-01-05T16:30:34.469Z,2.28
2019-01-05T16:31:48.103Z,2.27
2019-01-05T16:32:56.050Z,2.33
2019-01-05T16:34:16.781Z,2.28
2019-01-05T16:35:39.879Z,2.27
2019-01-05T16:36:50.828Z,2.25
2019-01-05T16:38:13.527Z,2.27
2019-01-05T16:39:18.596Z,2.32
2019-01-05T16:40:26.521Z,2.37
2019-01-05T16:41:40.475Z,2.28
2019-01-05T16:42:57.628Z,2.30
2019-01-05T16:44:05.266Z,2.37
2019-01-05T16:45:19.085Z,2.32
2019-01-05T16:46:24.185Z,2.41
2019-01-05T16:47:32.150Z,2.47
2019-01-05T16:48:45.946Z,2.48
2019-01-05T16:49:53.700Z,2.45
2019-01-05T16:50:58.978Z,2.46
2019-01-05T16:52:09.562Z,2.36
2019-01-05T16:53:30.304Z,2.27
2019-01-05T16:54:35.368Z,2.30
2019-01-05T16:55:49.114Z,2.30
2019-01-05T16:57:10.271Z,2.37
2019-01-05T16:58:31.429Z,2.31
2019-01-05T16:59:51.639Z,2.42
2019-01-05T17:01:12.813Z,2.39
2019-01-05T17:02:20.685Z,2.31
2019-01-05T17:03:31.656Z,2.33
2019-01-05T17:04:52.555Z,2.33
2019-01-05T17:06:06.790Z,2.22
2019-01-05T17:07:20.931Z,2.23
2019-01-05T17:08:28.846Z,2.25
2019-01-05T17:09:36.873Z,2.26
2019-01-05T17:10:57.920Z,2.28
2019-01-05T17:12:08.745Z,2.22
2019-01-05T17:13:13.992Z,2.15
2019-01-05T17:14:30.667Z,2.19
2019-01-05T17:15:38.580Z,2.19
2019-01-05T17:16:46.551Z,2.19
2019-01-05T17:18:00.407Z,2.27
2019-01-05T17:19:05.471Z,2.29
2019-01-05T17:20:13.384Z,2.32
2019-01-05T17:21:21.348Z,2.37
2019-01-05T17:22:34.930Z,2.50
2019-01-05T17:23:48.824Z,2.50
2019-01-05T17:24:53.944Z,2.48
2019-01-05T17:26:14.979Z,2.40
2019-01-05T17:27:36.320Z,2.40
2019-01-05T17:28:49.814Z,2.34
2019-01-05T17:29:54.954Z,2.29
2019-01-05T17:31:00.055Z,2.29
2019-01-05T17:32:05.132Z,2.25
2019-01-05T17:33:26.339Z,2.24
2019-01-05T17:34:47.645Z,2.28
2019-01-05T17:36:01.614Z,2.30
2019-01-05T17:37:22.746Z,2.29
2019-01-05T17:38:43.932Z,2.33
2019-01-05T17:39:49.022Z,2.24
2019-01-05T17:40:59.928Z,2.24
2019-01-05T17:42:07.740Z,2.23
2019-01-05T17:43:27.655Z,2.24
2019-01-05T17:44:47.681Z,2.26
2019-01-05T17:45:55.414Z,2.24
2019-01-05T17:47:09.211Z,2.20
2019-01-05T17:48:19.976Z,2.27
2019-01-05T17:49:25.059Z,2.27
2019-01-05T17:50:41.807Z,2.29
2019-01-05T17:51:52.479Z,2.32
2019-01-05T17:53:03.397Z,2.29
2019-01-05T17:54:20.119Z,2.21
2019-01-05T17:55:30.823Z,2.23
2019-01-05T17:56:38.705Z,2.28
2019-01-05T17:57:52.750Z,2.42
2019-01-05T17:59:13.958Z,2.53
2019-01-05T18:00:35.049Z,2.41
2019-01-05T18:01:40.135Z,2.42
2019-01-05T18:02:48.054Z,2.46
2019-01-05T18:04:11.137Z,2.37
2019-01-05T18:05:22.064Z,2.32
2019-01-05T18:06:43.208Z,2.42
2019-01-05T18:08:04.345Z,2.41
2019-01-05T18:09:12.114Z,2.37
2019-01-05T18:10:22.631Z,2.38
2019-01-05T18:11:45.694Z,2.31
2019-01-05T18:12:56.461Z,2.37
2019-01-05T18:14:17.628Z,2.41
2019-01-05T18:15:38.819Z,2.36
2019-01-05T18:16:46.292Z,2.45
2019-01-05T18:17:57.022Z,2.39
2019-01-05T18:19:10.998Z,2.37
2019-01-05T18:20:33.924Z,2.29
2019-01-05T18:21:37.352Z,2.27
2019-01-05T18:23:00.281Z,2.30
2019-01-05T18:24:20.371Z,2.38
2019-01-05T18:25:40.226Z,2.53
2019-01-05T18:27:03.285Z,2.47
2019-01-05T18:28:24.417Z,2.50
2019-01-05T18:29:35.481Z,2.37
2019-01-05T18:30:49.017Z,2.34
2019-01-05T18:32:06.104Z,2.38
2019-01-05T18:33:14.033Z,2.29
2019-01-05T18:34:24.605Z,2.30
2019-01-05T18:35:32.488Z,2.36
2019-01-05T18:36:43.543Z,2.35
2019-01-05T18:37:54.210Z,2.36
2019-01-05T18:39:08.118Z,2.38
2019-01-05T18:40:13.304Z,2.35
2019-01-05T18:41:34.509Z,2.36
2019-01-05T18:42:45.152Z,2.36
2019-01-05T18:44:04.950Z,2.29
2019-01-05T18:45:26.558Z,2.24
2019-01-05T18:46:47.914Z,2.32
2019-01-05T18:48:04.621Z,2.25
2019-01-05T18:49:12.109Z,2.35
2019-01-05T18:50:35.229Z,2.34
2019-01-05T18:51:54.831Z,2.28
2019-01-05T18:53:11.625Z,2.30
2019-01-05T18:54:28.655Z,2.34